Time;durP1;ratioP1;P1;durP2;ratioP2;P2;SDS_P1;SDS_P2;PMS_P1;PMS_P2;Temp;Humidity;BMP_temperature;BMP_pressure;BME280_temperature;BME280_humidity;BME280_pressure;Samples;Min_cycle;Max_cycle;Signal;HPM_P1;HPM_P2
2024/01/30 00:00:24;;;;;;;16.02;5.95;;;;;;;;;;4982765;28;20046;-75
2024/01/30 00:02:51;;;;;;;15.00;4.90;;;;;;;;;;4989594;28;20116;-74
2024/01/30 00:05:17;;;;;;;15.55;5.30;;;;;;;;;;4988418;28;20085;-75
2024/01/30 00:07:45;;;;;;;15.20;5.05;;;;;;;;;;4970828;28;20030;-77
2024/01/30 00:10:11;;;;;;;16.00;4.60;;;;;;;;;;4989589;28;20051;-75
2024/01/30 00:12:37;;;;;;;16.33;4.78;;;;;;;;;;4968832;28;20044;-75
2024/01/30 00:15:04;;;;;;;13.52;4.80;;;;;;;;;;4961156;28;20410;-75
2024/01/30 00:17:34;;;;;;;12.77;4.22;;;;;;;;;;4976970;28;20775;-76
2024/01/30 00:20:05;;;;;;;16.77;5.13;;;;;;;;;;4974770;28;20052;-77
2024/01/30 00:22:34;;;;;;;16.98;5.32;;;;;;;;;;4975763;28;20037;-76
2024/01/30 00:25:00;;;;;;;13.20;4.47;;;;;;;;;;4958416;28;20457;-77
2024/01/30 00:27:28;;;;;;;17.70;5.50;;;;;;;;;;4979280;28;20030;-76
2024/01/30 00:29:54;;;;;;;17.05;5.78;;;;;;;;;;4983101;28;20041;-76
2024/01/30 00:32:21;;;;;;;14.05;5.25;;;;;;;;;;4956756;28;20042;-77
2024/01/30 00:34:46;;;;;;;;;;;;;;;;;;4958479;28;20266;-78
2024/01/30 00:37:13;;;;;;;16.17;5.50;;;;;;;;;;4959197;28;20579;-77
2024/01/30 00:39:39;;;;;;;18.65;4.82;;;;;;;;;;4939510;28;20038;-77
2024/01/30 00:42:06;;;;;;;12.05;4.30;;;;;;;;;;4959321;28;20058;-77
2024/01/30 00:44:39;;;;;;;14.77;5.00;;;;;;;;;;4957890;28;20030;-76
2024/01/30 00:47:06;;;;;;;15.77;4.78;;;;;;;;;;4941709;28;20098;-76
2024/01/30 00:49:32;;;;;;;14.55;4.22;;;;;;;;;;4939489;28;20041;-75
2024/01/30 00:51:58;;;;;;;14.38;4.20;;;;;;;;;;4955167;28;20030;-77
2024/01/30 00:54:25;;;;;;;14.60;4.70;;;;;;;;;;4954658;28;20044;-75
2024/01/30 00:56:53;;;;;;;17.85;4.65;;;;;;;;;;4977414;28;20585;-75
2024/01/30 00:59:19;;;;;;;14.23;4.20;;;;;;;;;;4978333;28;20621;-74
2024/01/30 01:01:45;;;;;;;17.23;5.32;;;;;;;;;;4979085;28;20065;-77
2024/01/30 01:04:14;;;;;;;14.00;4.82;;;;;;;;;;4961071;28;20054;-75
2024/01/30 01:06:43;;;;;;;14.20;4.90;;;;;;;;;;4978483;28;20040;-77
2024/01/30 01:09:10;;;;;;;15.07;4.78;;;;;;;;;;4958950;28;20152;-77
2024/01/30 01:11:37;;;;;;;15.27;5.03;;;;;;;;;;4956281;28;20031;-77
2024/01/30 01:14:03;;;;;;;14.20;4.65;;;;;;;;;;4983416;28;20061;-75
2024/01/30 01:16:31;;;;;;;15.23;4.90;;;;;;;;;;4973483;28;20141;-75
2024/01/30 01:19:00;;;;;;;15.13;4.97;;;;;;;;;;4991183;28;20037;-76
2024/01/30 01:21:26;;;;;;;15.30;4.70;;;;;;;;;;4987629;28;20045;-78
2024/01/30 01:23:52;;;;;;;;;;;;;;;;;;4991419;28;20029;-76
2024/01/30 01:26:19;;;;;;;16.15;4.97;;;;;;;;;;4993763;28;19913;-76
2024/01/30 01:28:45;;;;;;;14.60;4.97;;;;;;;;;;4990027;28;20036;-76
2024/01/30 01:31:11;;;;;;;15.10;4.68;;;;;;;;;;4996380;28;20037;-78
2024/01/30 01:33:41;;;;;;;12.57;3.85;;;;;;;;;;4986204;28;20054;-77
2024/01/30 01:36:10;;;;;;;14.10;4.72;;;;;;;;;;4990532;28;20037;-78
2024/01/30 01:38:39;;;;;;;12.95;4.35;;;;;;;;;;4971313;28;20041;-77
2024/01/30 01:41:05;;;;;;;13.85;4.22;;;;;;;;;;4969401;28;20042;-77
2024/01/30 01:43:32;;;;;;;14.88;4.93;;;;;;;;;;4969445;28;20832;-76
2024/01/30 01:45:59;;;;;;;12.75;4.03;;;;;;;;;;4970242;28;20105;-76
2024/01/30 01:48:25;;;;;;;11.73;3.63;;;;;;;;;;4970314;28;20033;-75
2024/01/30 01:50:52;;;;;;;15.32;4.25;;;;;;;;;;4973505;28;20073;-75
2024/01/30 01:53:18;;;;;;;15.13;4.25;;;;;;;;;;4968619;28;20120;-75
2024/01/30 01:55:46;;;;;;;15.30;4.05;;;;;;;;;;4989890;28;20033;-79
2024/01/30 01:58:14;;;;;;;14.43;4.13;;;;;;;;;;4988930;28;20081;-75
2024/01/30 02:00:41;;;;;;;12.73;3.97;;;;;;;;;;4970518;28;20507;-76
2024/01/30 02:03:10;;;;;;;12.40;3.70;;;;;;;;;;4956743;28;20057;-76
2024/01/30 02:05:38;;;;;;;11.32;3.67;;;;;;;;;;4968699;28;20041;-76
2024/01/30 02:08:07;;;;;;;14.50;3.75;;;;;;;;;;4990046;28;20493;-75
2024/01/30 02:10:44;;;;;;;12.48;3.67;;;;;;;;;;4973244;28;20044;-76
2024/01/30 02:13:12;;;;;;;12.52;3.60;;;;;;;;;;4992000;28;20046;-75
2024/01/30 02:15:38;;;;;;;13.75;3.70;;;;;;;;;;4975361;28;20038;-77
2024/01/30 02:18:05;;;;;;;14.95;4.43;;;;;;;;;;4974747;28;20049;-77
2024/01/30 02:20:32;;;;;;;13.48;3.63;;;;;;;;;;4977970;28;20066;-77
2024/01/30 02:23:03;;;;;;;12.82;3.80;;;;;;;;;;4948276;28;20038;-76
2024/01/30 02:25:34;;;;;;;15.55;4.07;;;;;;;;;;4972346;28;20033;-77
2024/01/30 02:28:00;;;;;;;13.23;3.67;;;;;;;;;;4976114;28;20062;-76
2024/01/30 02:30:27;;;;;;;15.60;4.03;;;;;;;;;;4972147;28;20053;-76
2024/01/30 02:32:53;;;;;;;13.90;4.28;;;;;;;;;;4982073;28;20509;-76
2024/01/30 02:35:19;;;;;;;13.05;3.83;;;;;;;;;;4973704;28;20195;-76
2024/01/30 02:37:45;;;;;;;13.57;4.00;;;;;;;;;;4981722;28;20037;-76
2024/01/30 02:40:12;;;;;;;11.57;3.92;;;;;;;;;;4987856;28;20663;-77
2024/01/30 02:42:38;;;;;;;14.77;4.13;;;;;;;;;;4964692;28;21694;-76
2024/01/30 02:45:05;;;;;;;15.13;4.30;;;;;;;;;;4961156;28;20034;-75
2024/01/30 02:47:31;;;;;;;17.40;4.70;;;;;;;;;;4977925;28;20045;-75
2024/01/30 02:49:58;;;;;;;15.13;4.70;;;;;;;;;;4983380;28;20038;-76
2024/01/30 02:52:24;;;;;;;15.38;4.00;;;;;;;;;;4978496;28;20134;-78
2024/01/30 02:54:50;;;;;;;14.73;4.53;;;;;;;;;;4977080;28;20038;-78
2024/01/30 02:57:19;;;;;;;12.82;4.28;;;;;;;;;;4941844;28;20035;-75
2024/01/30 02:59:45;;;;;;;14.20;3.95;;;;;;;;;;4981472;28;20014;-76
2024/01/30 03:02:11;;;;;;;15.07;4.15;;;;;;;;;;4980873;28;20038;-75
2024/01/30 03:04:42;;;;;;;15.13;3.92;;;;;;;;;;4958155;28;20677;-75
2024/01/30 03:07:11;;;;;;;16.52;4.50;;;;;;;;;;4981582;28;20032;-78
2024/01/30 03:09:38;;;;;;;11.90;3.40;;;;;;;;;;4981295;28;20055;-78
2024/01/30 03:12:05;;;;;;;14.88;4.28;;;;;;;;;;4980454;28;20025;-76
2024/01/30 03:14:31;;;;;;;;;;;;;;;;;;4957634;28;20049;-77
2024/01/30 03:16:59;;;;;;;15.80;4.35;;;;;;;;;;4973985;28;19913;-77
2024/01/30 03:19:25;;;;;;;14.00;3.80;;;;;;;;;;4973847;28;20581;-76
2024/01/30 03:21:51;;;;;;;;;;;;;;;;;;4977085;28;20027;-76
2024/01/30 03:24:19;;;;;;;12.77;3.78;;;;;;;;;;4976296;28;19920;-77
2024/01/30 03:26:45;;;;;;;11.98;3.70;;;;;;;;;;4961427;28;20039;-75
2024/01/30 03:29:11;;;;;;;15.20;3.65;;;;;;;;;;4958715;28;20046;-76
2024/01/30 03:31:39;;;;;;;11.48;3.10;;;;;;;;;;4974499;28;20112;-76
2024/01/30 03:34:08;;;;;;;13.43;3.20;;;;;;;;;;4973162;28;20054;-78
2024/01/30 03:36:34;;;;;;;14.15;3.58;;;;;;;;;;4957372;28;20591;-75
2024/01/30 03:39:02;;;;;;;16.05;4.10;;;;;;;;;;4976161;28;20785;-75
2024/01/30 03:41:29;;;;;;;14.00;4.03;;;;;;;;;;4949563;28;20078;-76
2024/01/30 03:43:55;;;;;;;;;;;;;;;;;;4978774;28;20064;-76
2024/01/30 03:46:22;;;;;;;15.43;3.72;;;;;;;;;;4954427;28;20020;-76
2024/01/30 03:48:49;;;;;;;14.32;3.35;;;;;;;;;;4975986;28;20030;-75
2024/01/30 03:51:15;;;;;;;;;;;;;;;;;;4976082;28;20038;-77
2024/01/30 03:53:46;;;;;;;19.48;3.88;;;;;;;;;;4973712;28;19921;-75
2024/01/30 03:56:13;;;;;;;17.17;3.90;;;;;;;;;;4972788;28;20601;-75
2024/01/30 03:58:41;;;;;;;13.35;3.58;;;;;;;;;;4972235;28;20053;-76
2024/01/30 04:01:07;;;;;;;16.13;4.07;;;;;;;;;;4955096;28;20117;-75
2024/01/30 04:03:33;;;;;;;14.93;3.80;;;;;;;;;;4954566;28;20601;-79
2024/01/30 04:06:01;;;;;;;13.85;3.20;;;;;;;;;;4955632;28;20021;-76
2024/01/30 04:08:27;;;;;;;14.65;4.15;;;;;;;;;;4972522;28;20027;-76
2024/01/30 04:10:54;;;;;;;12.82;3.78;;;;;;;;;;4956738;28;20046;-76
2024/01/30 04:13:20;;;;;;;17.38;4.10;;;;;;;;;;4974154;28;20037;-76
2024/01/30 04:15:46;;;;;;;14.90;3.72;;;;;;;;;;4971873;28;20108;-76
2024/01/30 04:18:13;;;;;;;17.77;4.18;;;;;;;;;;4989998;28;20065;-76
2024/01/30 04:20:41;;;;;;;14.30;3.92;;;;;;;;;;4988012;28;20029;-76
2024/01/30 04:23:09;;;;;;;15.98;3.65;;;;;;;;;;4988139;28;20033;-76
2024/01/30 04:25:36;;;;;;;16.23;3.67;;;;;;;;;;4969822;28;20680;-77
2024/01/30 04:28:02;;;;;;;16.33;4.18;;;;;;;;;;4968632;28;20021;-77
2024/01/30 04:30:28;;;;;;;14.18;3.83;;;;;;;;;;4967601;28;20874;-76
2024/01/30 04:32:55;;;;;;;14.60;3.80;;;;;;;;;;4988794;28;20036;-76
2024/01/30 04:35:24;;;;;;;13.90;3.97;;;;;;;;;;4971019;28;20037;-76
2024/01/30 04:37:50;;;;;;;12.55;3.30;;;;;;;;;;4966196;28;20113;-76
2024/01/30 04:40:18;;;;;;;15.00;3.70;;;;;;;;;;4972846;28;20072;-77
2024/01/30 04:42:46;;;;;;;18.58;4.22;;;;;;;;;;4972136;28;20021;-77
2024/01/30 04:45:13;;;;;;;16.65;4.15;;;;;;;;;;4969851;28;20144;-77
2024/01/30 04:47:40;;;;;;;13.43;3.30;;;;;;;;;;4985262;28;20026;-77
2024/01/30 04:50:08;;;;;;;14.07;3.65;;;;;;;;;;4991313;28;20034;-77
2024/01/30 04:52:37;;;;;;;16.10;3.90;;;;;;;;;;4985852;28;20037;-77
2024/01/30 04:55:03;;;;;;;13.52;3.67;;;;;;;;;;4988233;28;20246;-77
2024/01/30 04:57:30;;;;;;;15.68;4.00;;;;;;;;;;4985680;28;20030;-77
2024/01/30 04:59:57;;;;;;;21.08;4.57;;;;;;;;;;4973731;28;20057;-77
2024/01/30 05:02:23;;;;;;;14.20;3.90;;;;;;;;;;4988136;28;20033;-76
2024/01/30 05:04:49;;;;;;;15.65;4.22;;;;;;;;;;4971156;28;20507;-77
2024/01/30 05:07:16;;;;;;;19.52;4.20;;;;;;;;;;4988786;28;20103;-75
2024/01/30 05:09:42;;;;;;;14.45;3.95;;;;;;;;;;4989015;28;20030;-76
2024/01/30 05:12:08;;;;;;;14.88;3.65;;;;;;;;;;4990629;28;20034;-76
2024/01/30 05:14:34;;;;;;;16.13;3.92;;;;;;;;;;4985482;28;21055;-76
2024/01/30 05:17:03;;;;;;;14.00;3.35;;;;;;;;;;4959493;28;20086;-76
2024/01/30 05:19:29;;;;;;;14.43;3.70;;;;;;;;;;4979364;28;20832;-76
2024/01/30 05:21:56;;;;;;;13.23;3.53;;;;;;;;;;4959507;28;20021;-76
2024/01/30 05:24:23;;;;;;;13.13;3.50;;;;;;;;;;4955947;28;20049;-78
2024/01/30 05:26:51;;;;;;;12.52;3.33;;;;;;;;;;4956994;28;20234;-76
2024/01/30 05:29:17;;;;;;;17.42;4.05;;;;;;;;;;4982438;28;20038;-76
2024/01/30 05:31:44;;;;;;;17.15;4.10;;;;;;;;;;4958159;28;20042;-76
2024/01/30 05:34:12;;;;;;;12.55;3.80;;;;;;;;;;4957689;28;20188;-75
2024/01/30 05:36:39;;;;;;;15.35;4.07;;;;;;;;;;4980319;28;21329;-78
2024/01/30 05:39:05;;;;;;;15.00;4.07;;;;;;;;;;4955343;28;20037;-75
2024/01/30 05:41:33;;;;;;;15.10;4.20;;;;;;;;;;4954495;28;20591;-75
2024/01/30 05:43:59;;;;;;;14.90;4.00;;;;;;;;;;4956844;28;20044;-76
2024/01/30 05:46:27;;;;;;;15.93;3.92;;;;;;;;;;4978290;28;20045;-76
2024/01/30 05:48:54;;;;;;;15.27;3.58;;;;;;;;;;4982154;28;20040;-76
2024/01/30 05:51:20;;;;;;;16.70;4.00;;;;;;;;;;4951216;28;20125;-76
2024/01/30 05:53:46;;;;;;;14.65;4.10;;;;;;;;;;4979933;28;20026;-77
2024/01/30 05:56:12;;;;;;;16.42;3.80;;;;;;;;;;4956794;28;20089;-76
2024/01/30 05:58:38;;;;;;;15.43;3.33;;;;;;;;;;4954418;28;20037;-77
2024/01/30 06:01:09;;;;;;;18.88;4.22;;;;;;;;;;4954399;28;20065;-76
2024/01/30 06:03:38;;;;;;;18.58;4.10;;;;;;;;;;4952095;28;20038;-76
2024/01/30 06:06:06;;;;;;;16.52;4.07;;;;;;;;;;4978312;28;20388;-76
2024/01/30 06:08:34;;;;;;;14.88;4.15;;;;;;;;;;4975252;28;20150;-78
2024/01/30 06:11:03;;;;;;;16.92;4.20;;;;;;;;;;4983849;28;20122;-79
2024/01/30 06:13:31;;;;;;;14.30;3.85;;;;;;;;;;4979950;28;20084;-75
2024/01/30 06:15:58;;;;;;;15.07;4.10;;;;;;;;;;4983769;28;20093;-76
2024/01/30 06:18:26;;;;;;;;;;;;;;;;;;4959116;28;20563;-76
2024/01/30 06:20:54;;;;;;;16.52;4.00;;;;;;;;;;4957779;28;19922;-77
2024/01/30 06:23:20;;;;;;;16.88;3.75;;;;;;;;;;4977745;28;20034;-77
2024/01/30 06:25:46;;;;;;;16.60;4.68;;;;;;;;;;4981425;28;20811;-78
2024/01/30 06:28:13;;;;;;;18.80;4.75;;;;;;;;;;4957585;28;20026;-77
2024/01/30 06:30:41;;;;;;;14.23;3.88;;;;;;;;;;4977009;28;20042;-77
2024/01/30 06:33:08;;;;;;;14.75;4.60;;;;;;;;;;4982885;28;20714;-76
2024/01/30 06:35:36;;;;;;;15.70;4.60;;;;;;;;;;4953910;28;20038;-77
2024/01/30 06:38:03;;;;;;;15.35;4.28;;;;;;;;;;4957033;28;20054;-75
2024/01/30 06:40:30;;;;;;;16.10;4.80;;;;;;;;;;4956905;28;20042;-76
2024/01/30 06:42:58;;;;;;;22.15;4.50;;;;;;;;;;4981547;28;20061;-77
2024/01/30 06:45:25;;;;;;;18.00;4.60;;;;;;;;;;4979482;28;20918;-76
2024/01/30 06:47:53;;;;;;;15.48;3.80;;;;;;;;;;4983461;28;20057;-76
2024/01/30 06:50:25;;;;;;;18.13;4.93;;;;;;;;;;4981983;28;20053;-76
2024/01/30 06:52:56;;;;;;;20.40;5.63;;;;;;;;;;4978027;28;20376;-77
2024/01/30 06:55:22;;;;;;;16.25;5.43;;;;;;;;;;4978907;28;20044;-77
2024/01/30 06:57:48;;;;;;;19.95;6.50;;;;;;;;;;4975490;28;20026;-78
2024/01/30 07:00:16;;;;;;;15.75;4.72;;;;;;;;;;4984325;28;20026;-77
2024/01/30 07:02:42;;;;;;;14.30;4.68;;;;;;;;;;4957241;28;20516;-78
2024/01/30 07:05:09;;;;;;;17.33;6.32;;;;;;;;;;4984014;28;20045;-79
2024/01/30 07:07:36;;;;;;;20.52;5.82;;;;;;;;;;4975449;28;20034;-78
2024/01/30 07:10:03;;;;;;;17.67;5.22;;;;;;;;;;4958186;28;20042;-79
2024/01/30 07:12:32;;;;;;;16.70;5.13;;;;;;;;;;4956722;28;20026;-78
2024/01/30 07:14:59;;;;;;;19.88;6.40;;;;;;;;;;4976519;28;20645;-78
2024/01/30 07:17:25;;;;;;;18.02;4.90;;;;;;;;;;4967384;28;20042;-79
2024/01/30 07:19:53;;;;;;;17.25;4.80;;;;;;;;;;4960339;28;20034;-77
2024/01/30 07:22:19;;;;;;;16.50;4.70;;;;;;;;;;4986089;28;20036;-77
2024/01/30 07:24:47;;;;;;;14.65;4.65;;;;;;;;;;4980122;28;20119;-80
2024/01/30 07:27:14;;;;;;;15.38;4.20;;;;;;;;;;4970904;28;20037;-79
2024/01/30 07:29:40;;;;;;;17.35;4.68;;;;;;;;;;4987881;28;20033;-77
2024/01/30 07:32:07;;;;;;;18.73;4.97;;;;;;;;;;4994997;28;20096;-79
2024/01/30 07:34:34;;;;;;;16.38;4.63;;;;;;;;;;4968301;28;20061;-79
2024/01/30 07:37:01;;;;;;;16.95;5.82;;;;;;;;;;4989433;28;20022;-75
2024/01/30 07:39:27;;;;;;;22.13;6.13;;;;;;;;;;4968463;28;20120;-76
2024/01/30 07:41:53;;;;;;;18.17;5.22;;;;;;;;;;4972756;28;20637;-79
2024/01/30 07:44:21;;;;;;;20.05;4.97;;;;;;;;;;4971794;28;20029;-78
2024/01/30 07:46:47;;;;;;;17.05;5.30;;;;;;;;;;4976540;28;20634;-77
2024/01/30 07:49:15;;;;;;;19.20;5.20;;;;;;;;;;4971771;28;20111;-77
2024/01/30 07:51:44;;;;;;;19.60;4.85;;;;;;;;;;4991561;28;20029;-77
2024/01/30 07:54:15;;;;;;;15.65;4.90;;;;;;;;;;4972222;28;20040;-76
2024/01/30 07:56:42;;;;;;;18.13;4.85;;;;;;;;;;4988616;28;20037;-77
2024/01/30 07:59:12;;;;;;;16.73;4.85;;;;;;;;;;4970628;28;20034;-76
2024/01/30 08:01:38;;;;;;;16.55;5.00;;;;;;;;;;4950562;28;20044;-78
2024/01/30 08:04:04;;;;;;;16.00;5.38;;;;;;;;;;4968731;28;20144;-77
2024/01/30 08:06:30;;;;;;;;;;;;;;;;;;4968054;28;20538;-77
2024/01/30 08:08:59;;;;;;;14.98;5.18;;;;;;;;;;4975148;28;19920;-77
2024/01/30 08:11:26;;;;;;;17.65;5.10;;;;;;;;;;4970656;28;20046;-79
2024/01/30 08:13:57;;;;;;;17.15;4.72;;;;;;;;;;4979287;28;20046;-77
2024/01/30 08:16:23;;;;;;;15.85;4.40;;;;;;;;;;4988782;28;20033;-76
2024/01/30 08:18:50;;;;;;;19.95;4.55;;;;;;;;;;4973298;28;20142;-77
2024/01/30 08:21:17;;;;;;;17.38;4.45;;;;;;;;;;4992063;28;20046;-77
2024/01/30 08:23:44;;;;;;;15.32;4.45;;;;;;;;;;4969964;28;20090;-78
2024/01/30 08:26:11;;;;;;;16.10;4.25;;;;;;;;;;4975369;28;20057;-79
2024/01/30 08:28:42;;;;;;;16.73;4.30;;;;;;;;;;4973437;28;20121;-78
2024/01/30 08:31:12;;;;;;;17.60;4.30;;;;;;;;;;4974478;28;20117;-77
2024/01/30 08:33:40;;;;;;;15.38;5.28;;;;;;;;;;4988854;28;20040;-80
2024/01/30 08:36:07;;;;;;;18.67;5.95;;;;;;;;;;4974074;28;20100;-79
2024/01/30 08:38:33;;;;;;;14.43;5.95;;;;;;;;;;4973418;28;20035;-79
2024/01/30 08:41:01;;;;;;;19.33;6.55;;;;;;;;;;4978251;28;20029;-79
2024/01/30 08:43:28;;;;;;;15.80;6.07;;;;;;;;;;4972432;28;20038;-78
2024/01/30 08:45:54;;;;;;;16.95;5.72;;;;;;;;;;4992755;28;20048;-78
2024/01/30 08:48:22;;;;;;;;;;;;;;;;;;4990242;28;20469;-79
2024/01/30 08:50:50;;;;;;;15.30;6.13;;;;;;;;;;4982228;28;19917;-77
2024/01/30 08:53:16;;;;;;;17.92;6.82;;;;;;;;;;4992790;28;20045;-78
2024/01/30 08:55:42;;;;;;;18.92;6.95;;;;;;;;;;4969646;28;20044;-78
2024/01/30 08:58:08;;;;;;;;;;;;;;;;;;4972104;28;20034;-78
2024/01/30 09:00:35;;;;;;;20.33;6.57;;;;;;;;;;4972006;28;19917;-78
2024/01/30 09:03:02;;;;;;;14.43;5.43;;;;;;;;;;4973068;28;20030;-78
2024/01/30 09:05:27;;;;;;;;;;;;;;;;;;4970926;28;20045;-78
2024/01/30 09:07:54;;;;;;;14.40;4.22;;;;;;;;;;4991981;28;20491;-77
2024/01/30 09:10:20;;;;;;;;;;;;;;;;;;4972623;28;21140;-76
2024/01/30 09:12:46;;;;;;;15.15;4.07;;;;;;;;;;4976544;28;19928;-78
2024/01/30 09:15:12;;;;;;;14.52;3.75;;;;;;;;;;4971422;28;20053;-78
2024/01/30 09:17:38;;;;;;;;;;;;;;;;;;4971861;28;20045;-78
2024/01/30 09:20:05;;;;;;;12.98;3.20;;;;;;;;;;4968804;28;19921;-79
2024/01/30 09:22:32;;;;;;;13.10;3.40;;;;;;;;;;4979073;28;20091;-78
2024/01/30 09:24:58;;;;;;;12.15;3.35;;;;;;;;;;4996916;28;20029;-78
2024/01/30 09:27:24;;;;;;;12.13;3.20;;;;;;;;;;4971920;28;20022;-76
2024/01/30 09:29:51;;;;;;;15.60;3.30;;;;;;;;;;4990248;28;20029;-76
2024/01/30 09:32:17;;;;;;;12.77;2.92;;;;;;;;;;4973113;28;20497;-79
2024/01/30 09:34:43;;;;;;;16.20;3.05;;;;;;;;;;4973020;28;20164;-79
2024/01/30 09:37:10;;;;;;;11.27;3.10;;;;;;;;;;4977103;28;20114;-79
2024/01/30 09:39:36;;;;;;;11.38;2.78;;;;;;;;;;4986760;28;20084;-80
2024/01/30 09:42:21;;;;;;;13.65;3.05;;;;;;;;;;4971365;28;20107;-77
2024/01/30 09:44:52;;;;;;;12.15;2.78;;;;;;;;;;4973288;28;20481;-76
2024/01/30 09:47:20;;;;;;;10.68;2.53;;;;;;;;;;4968011;28;20076;-77
2024/01/30 09:49:46;;;;;;;14.32;3.28;;;;;;;;;;4990988;28;21350;-78
2024/01/30 09:52:15;;;;;;;11.73;3.13;;;;;;;;;;4970548;28;20042;-77
2024/01/30 09:54:43;;;;;;;12.55;2.75;;;;;;;;;;4970400;28;20030;-78
2024/01/30 09:57:11;;;;;;;15.60;3.30;;;;;;;;;;4969912;28;20050;-77
2024/01/30 09:59:37;;;;;;;11.32;2.63;;;;;;;;;;4987532;28;20053;-77
2024/01/30 10:02:07;;;;;;;12.68;2.72;;;;;;;;;;4970152;28;20482;-77
2024/01/30 10:04:33;;;;;;;12.82;2.80;;;;;;;;;;4970659;28;20037;-77
2024/01/30 10:07:03;;;;;;;10.05;2.13;;;;;;;;;;4971783;28;20046;-77
2024/01/30 10:09:33;;;;;;;10.68;2.58;;;;;;;;;;4989000;28;20125;-78
2024/01/30 10:11:59;;;;;;;10.85;2.63;;;;;;;;;;4971142;28;20091;-77
2024/01/30 10:14:27;;;;;;;11.35;2.47;;;;;;;;;;4965093;28;20197;-78
2024/01/30 10:16:53;;;;;;;12.93;2.72;;;;;;;;;;4954038;28;20031;-77
2024/01/30 10:19:20;;;;;;;12.00;2.90;;;;;;;;;;4951035;28;20054;-78
2024/01/30 10:21:46;;;;;;;12.10;2.90;;;;;;;;;;4950694;28;20518;-79
2024/01/30 10:24:13;;;;;;;13.27;2.90;;;;;;;;;;4968735;28;20035;-78
2024/01/30 10:26:40;;;;;;;11.63;2.70;;;;;;;;;;4965525;28;20046;-77
2024/01/30 10:29:06;;;;;;;13.43;3.35;;;;;;;;;;4952014;28;20126;-77
2024/01/30 10:31:33;;;;;;;11.93;2.92;;;;;;;;;;4964519;28;20046;-77
2024/01/30 10:33:59;;;;;;;11.98;2.75;;;;;;;;;;4952809;28;20466;-77
2024/01/30 10:36:29;;;;;;;14.05;3.10;;;;;;;;;;4955298;28;20111;-77
2024/01/30 10:38:58;;;;;;;10.13;2.75;;;;;;;;;;4956108;28;20038;-79
2024/01/30 10:41:26;;;;;;;10.23;2.28;;;;;;;;;;4966736;28;20233;-76
2024/01/30 10:44:03;;;;;;;12.43;2.90;;;;;;;;;;4971256;28;20031;-76
2024/01/30 10:46:34;;;;;;;9.10;2.33;;;;;;;;;;4948064;28;20046;-76
2024/01/30 10:49:02;;;;;;;13.07;2.72;;;;;;;;;;4968645;28;20092;-76
2024/01/30 10:51:29;;;;;;;15.73;3.53;;;;;;;;;;4949096;28;20125;-76
2024/01/30 10:53:56;;;;;;;9.88;2.55;;;;;;;;;;4970854;28;20032;-79
2024/01/30 10:56:24;;;;;;;12.82;2.97;;;;;;;;;;4971229;28;20096;-76
2024/01/30 10:58:53;;;;;;;10.18;2.50;;;;;;;;;;4957503;28;20039;-79
2024/01/30 11:01:22;;;;;;;11.40;2.78;;;;;;;;;;4951750;28;20042;-76
2024/01/30 11:03:49;;;;;;;12.57;3.10;;;;;;;;;;4955505;28;20026;-77
2024/01/30 11:06:26;;;;;;;11.98;3.13;;;;;;;;;;4970804;28;20026;-76
2024/01/30 11:09:09;;;;;;;10.93;2.90;;;;;;;;;;4974906;28;20538;-79
2024/01/30 11:11:52;;;;;;;12.98;2.63;;;;;;;;;;4952587;28;20066;-79
2024/01/30 11:14:26;;;;;;;10.82;3.17;;;;;;;;;;4976804;28;20042;-79
2024/01/30 11:16:53;;;;;;;9.13;2.80;;;;;;;;;;4973568;28;20772;-78
2024/01/30 11:19:26;;;;;;;15.27;3.60;;;;;;;;;;4990251;28;20041;-77
2024/01/30 11:21:54;;;;;;;13.52;3.75;;;;;;;;;;4974560;28;20037;-77
2024/01/30 11:24:23;;;;;;;13.52;3.90;;;;;;;;;;4976640;28;20048;-76
2024/01/30 11:27:00;;;;;;;15.18;4.15;;;;;;;;;;4974368;28;20037;-76
2024/01/30 11:29:28;;;;;;;13.15;3.53;;;;;;;;;;4966152;28;20060;-76
2024/01/30 11:32:00;;;;;;;11.85;3.03;;;;;;;;;;4973417;28;20498;-77
2024/01/30 11:34:28;;;;;;;13.98;3.13;;;;;;;;;;4971265;28;20069;-76
2024/01/30 11:37:00;;;;;;;11.80;3.08;;;;;;;;;;4950212;28;20038;-77
2024/01/30 11:39:28;;;;;;;11.52;3.10;;;;;;;;;;4987968;28;20519;-76
2024/01/30 11:41:57;;;;;;;12.90;3.22;;;;;;;;;;4972564;28;20034;-76
2024/01/30 11:44:23;;;;;;;12.23;3.13;;;;;;;;;;4991259;28;20068;-77
2024/01/30 11:46:50;;;;;;;13.23;3.03;;;;;;;;;;4994446;28;20045;-78
2024/01/30 11:49:18;;;;;;;10.23;2.60;;;;;;;;;;4991330;28;20049;-76
2024/01/30 11:51:48;;;;;;;12.27;3.13;;;;;;;;;;4992904;28;20026;-77
2024/01/30 11:54:15;;;;;;;13.90;3.00;;;;;;;;;;4973707;28;20037;-77
2024/01/30 11:56:42;;;;;;;12.90;2.95;;;;;;;;;;4978200;28;20022;-77
2024/01/30 11:59:08;;;;;;;11.07;3.33;;;;;;;;;;4977675;28;20038;-77
2024/01/30 12:01:35;;;;;;;13.05;3.67;;;;;;;;;;4986136;28;20044;-77
2024/01/30 12:04:02;;;;;;;14.80;2.95;;;;;;;;;;4973524;28;20049;-77
2024/01/30 12:06:30;;;;;;;11.57;3.00;;;;;;;;;;4988071;28;20061;-76
2024/01/30 12:09:00;;;;;;;12.80;3.55;;;;;;;;;;4991172;28;20032;-77
2024/01/30 12:11:29;;;;;;;11.82;3.33;;;;;;;;;;4988305;28;20038;-77
2024/01/30 12:14:00;;;;;;;11.43;3.58;;;;;;;;;;4992611;28;20555;-77
2024/01/30 12:16:27;;;;;;;14.02;3.95;;;;;;;;;;4988284;28;20049;-76
2024/01/30 12:19:00;;;;;;;14.43;3.33;;;;;;;;;;4974957;28;20529;-76
2024/01/30 12:21:28;;;;;;;12.43;3.40;;;;;;;;;;4991247;28;20091;-77
2024/01/30 12:23:56;;;;;;;11.85;2.90;;;;;;;;;;4977249;28;20058;-77
2024/01/30 12:26:22;;;;;;;11.48;3.10;;;;;;;;;;4992917;28;20129;-77
2024/01/30 12:28:50;;;;;;;10.20;2.90;;;;;;;;;;4992383;28;20025;-77
2024/01/30 12:31:16;;;;;;;12.50;3.30;;;;;;;;;;4994045;28;20049;-78
2024/01/30 12:33:42;;;;;;;22.55;4.55;;;;;;;;;;4972344;28;20032;-78
2024/01/30 12:36:10;;;;;;;12.18;4.22;;;;;;;;;;4974721;28;20030;-77
2024/01/30 12:38:37;;;;;;;14.18;3.67;;;;;;;;;;4970829;28;20053;-78
2024/01/30 12:41:04;;;;;;;14.07;3.20;;;;;;;;;;4976721;28;20041;-78
2024/01/30 12:43:31;;;;;;;20.30;3.35;;;;;;;;;;4970775;28;20129;-78
2024/01/30 12:45:58;;;;;;;9.88;3.05;;;;;;;;;;4976690;28;20036;-78
2024/01/30 12:48:25;;;;;;;11.30;3.47;;;;;;;;;;4987997;28;20237;-78
2024/01/30 12:50:51;;;;;;;12.30;3.30;;;;;;;;;;4970997;28;20037;-76
2024/01/30 12:53:17;;;;;;;10.65;3.05;;;;;;;;;;4972171;28;20123;-78
2024/01/30 12:55:45;;;;;;;14.88;3.40;;;;;;;;;;4973266;28;20033;-77
2024/01/30 12:58:12;;;;;;;14.00;3.50;;;;;;;;;;4974398;28;20107;-76
2024/01/30 13:00:39;;;;;;;43.28;7.35;;;;;;;;;;4971508;28;20044;-76
2024/01/30 13:03:06;;;;;;;18.00;4.25;;;;;;;;;;4970218;28;20261;-76
2024/01/30 13:05:34;;;;;;;14.07;3.58;;;;;;;;;;4992280;28;20038;-77
2024/01/30 13:08:01;;;;;;;12.75;3.47;;;;;;;;;;4991839;28;20029;-77
2024/01/30 13:10:28;;;;;;;13.35;2.95;;;;;;;;;;4989983;28;20030;-78
2024/01/30 13:12:56;;;;;;;14.02;3.97;;;;;;;;;;4990838;28;20084;-76
2024/01/30 13:15:22;;;;;;;14.20;3.70;;;;;;;;;;4988454;28;20109;-79
2024/01/30 13:17:50;;;;;;;11.63;3.50;;;;;;;;;;4993563;28;20034;-75
2024/01/30 13:20:19;;;;;;;15.57;3.40;;;;;;;;;;4986646;28;20034;-77
2024/01/30 13:22:51;;;;;;;12.07;2.97;;;;;;;;;;4984620;28;20643;-77
2024/01/30 13:25:17;;;;;;;12.13;3.10;;;;;;;;;;4968299;28;20042;-78
2024/01/30 13:27:45;;;;;;;11.75;2.67;;;;;;;;;;4990065;28;20132;-78
2024/01/30 13:30:11;;;;;;;12.68;3.00;;;;;;;;;;4988144;28;20674;-78
2024/01/30 13:32:38;;;;;;;10.88;3.25;;;;;;;;;;4954689;28;20033;-78
2024/01/30 13:35:05;;;;;;;11.10;3.10;;;;;;;;;;4988150;28;20084;-78
2024/01/30 13:37:31;;;;;;;10.82;2.72;;;;;;;;;;4970802;28;20040;-76
2024/01/30 13:39:57;;;;;;;10.65;2.78;;;;;;;;;;4993419;28;20036;-77
2024/01/30 13:42:25;;;;;;;14.13;3.70;;;;;;;;;;4968658;28;20076;-77
2024/01/30 13:44:51;;;;;;;12.95;4.30;;;;;;;;;;4989205;28;20030;-78
2024/01/30 13:47:18;;;;;;;12.77;3.95;;;;;;;;;;4969659;28;20053;-77
2024/01/30 13:49:46;;;;;;;13.00;3.40;;;;;;;;;;4969011;28;20120;-77
2024/01/30 13:52:12;;;;;;;13.32;4.80;;;;;;;;;;4969286;28;20048;-78
2024/01/30 13:54:40;;;;;;;10.38;3.40;;;;;;;;;;4984278;28;20029;-77
2024/01/30 13:57:08;;;;;;;10.52;2.90;;;;;;;;;;4968531;28;20026;-78
2024/01/30 13:59:34;;;;;;;10.68;3.10;;;;;;;;;;4966475;28;20430;-77
2024/01/30 14:02:00;;;;;;;14.38;3.22;;;;;;;;;;4971462;28;20101;-78
2024/01/30 14:04:28;;;;;;;11.00;3.40;;;;;;;;;;4985435;28;20029;-76
2024/01/30 14:06:54;;;;;;;13.57;3.53;;;;;;;;;;4968267;28;20034;-75
2024/01/30 14:09:21;;;;;;;12.63;3.17;;;;;;;;;;4986963;28;20233;-76
2024/01/30 14:11:47;;;;;;;13.23;4.85;;;;;;;;;;4969079;28;21016;-77
2024/01/30 14:14:15;;;;;;;12.93;4.28;;;;;;;;;;4969709;28;20126;-77
2024/01/30 14:16:41;;;;;;;10.23;3.45;;;;;;;;;;4966587;28;20442;-77
2024/01/30 14:19:07;;;;;;;10.77;4.50;;;;;;;;;;4983921;28;20498;-76
2024/01/30 14:21:35;;;;;;;13.20;4.65;;;;;;;;;;4965724;28;20060;-77
2024/01/30 14:24:01;;;;;;;11.68;4.53;;;;;;;;;;4988634;28;20041;-76
2024/01/30 14:26:29;;;;;;;11.48;3.90;;;;;;;;;;4966286;28;20815;-77
2024/01/30 14:28:55;;;;;;;11.40;4.18;;;;;;;;;;4992076;28;20030;-76
2024/01/30 14:31:22;;;;;;;15.70;4.13;;;;;;;;;;4973593;28;20050;-78
2024/01/30 14:33:49;;;;;;;13.82;3.60;;;;;;;;;;4991664;28;20026;-78